sensor_id;sensor_type;location;lat;lon;timestamp;temperature;humidity
75786;DHT22;64402;44.708;37.644;2022-12-07T00:01:47;6.51;75.03
75786;DHT22;64402;44.708;37.644;2022-12-07T00:04:15;6.48;74.47
75786;DHT22;64402;44.708;37.644;2022-12-07T00:06:45;6.30;75.21
75786;DHT22;64402;44.708;37.644;2022-12-07T00:09:14;6.23;75.25
75786;DHT22;64402;44.708;37.644;2022-12-07T00:11:41;6.19;75.35
75786;DHT22;64402;44.708;37.644;2022-12-07T00:14:11;6.19;75.34
75786;DHT22;64402;44.708;37.644;2022-12-07T00:16:38;6.10;75.63
75786;DHT22;64402;44.708;37.644;2022-12-07T00:19:05;6.09;75.43
75786;DHT22;64402;44.708;37.644;2022-12-07T00:21:34;6.10;75.23
75786;DHT22;64402;44.708;37.644;2022-12-07T00:24:02;6.09;75.15
75786;DHT22;64402;44.708;37.644;2022-12-07T00:26:38;6.06;75.38
75786;DHT22;64402;44.708;37.644;2022-12-07T00:29:07;6.01;75.16
75786;DHT22;64402;44.708;37.644;2022-12-07T00:31:36;5.97;75.41
75786;DHT22;64402;44.708;37.644;2022-12-07T00:34:06;5.93;76.16
75786;DHT22;64402;44.708;37.644;2022-12-07T00:36:33;5.86;76.48
75786;DHT22;64402;44.708;37.644;2022-12-07T00:39:00;5.80;76.93
75786;DHT22;64402;44.708;37.644;2022-12-07T00:41:28;5.77;77.94
75786;DHT22;64402;44.708;37.644;2022-12-07T00:43:55;5.72;78.47
75786;DHT22;64402;44.708;37.644;2022-12-07T00:46:22;5.70;77.97
75786;DHT22;64402;44.708;37.644;2022-12-07T00:48:52;5.74;77.85
75786;DHT22;64402;44.708;37.644;2022-12-07T00:51:22;5.70;78.20
75786;DHT22;64402;44.708;37.644;2022-12-07T00:53:49;5.68;78.69
75786;DHT22;64402;44.708;37.644;2022-12-07T00:56:23;5.67;79.04
75786;DHT22;64402;44.708;37.644;2022-12-07T00:58:56;5.71;78.88
75786;DHT22;64402;44.708;37.644;2022-12-07T01:01:24;5.75;78.94
75786;DHT22;64402;44.708;37.644;2022-12-07T01:03:52;5.76;78.08
75786;DHT22;64402;44.708;37.644;2022-12-07T01:06:20;5.78;78.41
75786;DHT22;64402;44.708;37.644;2022-12-07T01:08:47;5.68;79.09
75786;DHT22;64402;44.708;37.644;2022-12-07T01:11:16;5.64;79.28
75786;DHT22;64402;44.708;37.644;2022-12-07T01:13:43;5.64;79.47
75786;DHT22;64402;44.708;37.644;2022-12-07T01:16:12;5.63;79.44
75786;DHT22;64402;44.708;37.644;2022-12-07T01:18:40;5.63;79.60
75786;DHT22;64402;44.708;37.644;2022-12-07T01:21:13;5.67;79.46
75786;DHT22;64402;44.708;37.644;2022-12-07T01:23:41;5.70;79.04
75786;DHT22;64402;44.708;37.644;2022-12-07T01:26:11;5.78;78.80
75786;DHT22;64402;44.708;37.644;2022-12-07T01:28:38;5.79;78.11
75786;DHT22;64402;44.708;37.644;2022-12-07T01:31:06;5.85;78.43
75786;DHT22;64402;44.708;37.644;2022-12-07T01:33:35;5.90;78.11
75786;DHT22;64402;44.708;37.644;2022-12-07T01:36:16;5.91;78.31
75786;DHT22;64402;44.708;37.644;2022-12-07T01:38:44;5.92;78.30
75786;DHT22;64402;44.708;37.644;2022-12-07T01:41:14;5.84;77.98
75786;DHT22;64402;44.708;37.644;2022-12-07T01:46:32;5.91;77.47
75786;DHT22;64402;44.708;37.644;2022-12-07T01:48:59;6.02;77.21
75786;DHT22;64402;44.708;37.644;2022-12-07T01:51:26;6.11;76.95
75786;DHT22;64402;44.708;37.644;2022-12-07T01:53:54;6.13;77.06
75786;DHT22;64402;44.708;37.644;2022-12-07T01:56:24;6.16;77.70
75786;DHT22;64402;44.708;37.644;2022-12-07T01:58:58;6.23;77.19
75786;DHT22;64402;44.708;37.644;2022-12-07T02:01:35;6.29;77.13
75786;DHT22;64402;44.708;37.644;2022-12-07T02:04:01;6.33;77.28
75786;DHT22;64402;44.708;37.644;2022-12-07T02:06:28;6.38;77.50
75786;DHT22;64402;44.708;37.644;2022-12-07T02:08:55;6.38;78.30
75786;DHT22;64402;44.708;37.644;2022-12-07T02:11:22;6.39;79.25
75786;DHT22;64402;44.708;37.644;2022-12-07T02:13:52;6.43;79.14
75786;DHT22;64402;44.708;37.644;2022-12-07T02:19:27;6.54;78.36
75786;DHT22;64402;44.708;37.644;2022-12-07T02:30:22;6.52;79.38
75786;DHT22;64402;44.708;37.644;2022-12-07T02:33:08;6.60;78.83
75786;DHT22;64402;44.708;37.644;2022-12-07T02:35:53;6.50;78.35
75786;DHT22;64402;44.708;37.644;2022-12-07T02:38:33;6.11;79.66
75786;DHT22;64402;44.708;37.644;2022-12-07T02:41:20;6.16;79.95
75786;DHT22;64402;44.708;37.644;2022-12-07T02:43:55;6.23;79.82
75786;DHT22;64402;44.708;37.644;2022-12-07T02:46:32;6.37;81.54
75786;DHT22;64402;44.708;37.644;2022-12-07T02:49:00;6.50;80.10
75786;DHT22;64402;44.708;37.644;2022-12-07T02:51:30;6.45;79.65
75786;DHT22;64402;44.708;37.644;2022-12-07T02:53:59;6.42;80.04
75786;DHT22;64402;44.708;37.644;2022-12-07T03:10:24;7.03;78.56
75786;DHT22;64402;44.708;37.644;2022-12-07T03:13:11;7.09;79.30
75786;DHT22;64402;44.708;37.644;2022-12-07T03:15:43;7.08;78.66
75786;DHT22;64402;44.708;37.644;2022-12-07T03:18:16;7.14;78.08
75786;DHT22;64402;44.708;37.644;2022-12-07T03:20:45;7.20;77.68
75786;DHT22;64402;44.708;37.644;2022-12-07T03:23:16;7.09;79.03
75786;DHT22;64402;44.708;37.644;2022-12-07T03:25:48;6.98;79.63
75786;DHT22;64402;44.708;37.644;2022-12-07T03:28:18;7.04;79.07
75786;DHT22;64402;44.708;37.644;2022-12-07T03:30:49;7.05;79.45
75786;DHT22;64402;44.708;37.644;2022-12-07T03:33:29;7.01;80.39
75786;DHT22;64402;44.708;37.644;2022-12-07T03:36:05;6.97;80.29
75786;DHT22;64402;44.708;37.644;2022-12-07T03:38:44;6.85;81.55
75786;DHT22;64402;44.708;37.644;2022-12-07T03:41:23;6.95;83.15
75786;DHT22;64402;44.708;37.644;2022-12-07T03:43:53;7.00;82.28
75786;DHT22;64402;44.708;37.644;2022-12-07T03:49:25;7.05;85.09
75786;DHT22;64402;44.708;37.644;2022-12-07T03:54:36;7.12;87.08
75786;DHT22;64402;44.708;37.644;2022-12-07T03:57:05;7.18;88.69
75786;DHT22;64402;44.708;37.644;2022-12-07T03:59:33;7.25;87.71
75786;DHT22;64402;44.708;37.644;2022-12-07T04:02:05;7.33;86.76
75786;DHT22;64402;44.708;37.644;2022-12-07T04:04:32;7.44;87.89
75786;DHT22;64402;44.708;37.644;2022-12-07T04:06:59;7.50;88.13
75786;DHT22;64402;44.708;37.644;2022-12-07T04:09:26;7.57;89.49
75786;DHT22;64402;44.708;37.644;2022-12-07T04:11:53;7.71;88.49
75786;DHT22;64402;44.708;37.644;2022-12-07T04:14:20;7.82;87.14
75786;DHT22;64402;44.708;37.644;2022-12-07T04:16:57;7.92;88.31
75786;DHT22;64402;44.708;37.644;2022-12-07T04:19:27;7.99;87.68
75786;DHT22;64402;44.708;37.644;2022-12-07T04:21:54;8.04;88.19
75786;DHT22;64402;44.708;37.644;2022-12-07T04:24:21;8.04;88.74
75786;DHT22;64402;44.708;37.644;2022-12-07T04:26:48;8.07;88.44
75786;DHT22;64402;44.708;37.644;2022-12-07T04:29:15;8.14;88.13
75786;DHT22;64402;44.708;37.644;2022-12-07T04:31:43;8.21;89.02
75786;DHT22;64402;44.708;37.644;2022-12-07T04:34:11;8.31;88.25
75786;DHT22;64402;44.708;37.644;2022-12-07T04:36:38;8.31;86.76
75786;DHT22;64402;44.708;37.644;2022-12-07T04:39:05;8.22;86.88
75786;DHT22;64402;44.708;37.644;2022-12-07T04:41:32;8.31;87.38
75786;DHT22;64402;44.708;37.644;2022-12-07T04:44:01;8.35;87.89
75786;DHT22;64402;44.708;37.644;2022-12-07T04:46:30;8.39;88.09
75786;DHT22;64402;44.708;37.644;2022-12-07T04:48:57;8.48;87.74
75786;DHT22;64402;44.708;37.644;2022-12-07T04:51:28;8.55;87.80
75786;DHT22;64402;44.708;37.644;2022-12-07T04:53:55;8.57;87.25
75786;DHT22;64402;44.708;37.644;2022-12-07T04:56:23;8.66;88.92
75786;DHT22;64402;44.708;37.644;2022-12-07T04:58:52;8.71;88.44
75786;DHT22;64402;44.708;37.644;2022-12-07T05:01:19;8.67;88.12
75786;DHT22;64402;44.708;37.644;2022-12-07T05:03:46;8.67;86.88
75786;DHT22;64402;44.708;37.644;2022-12-07T05:06:14;8.72;86.63
75786;DHT22;64402;44.708;37.644;2022-12-07T05:08:40;8.71;87.33
75786;DHT22;64402;44.708;37.644;2022-12-07T05:11:07;8.70;86.74
75786;DHT22;64402;44.708;37.644;2022-12-07T05:13:35;8.75;87.45
75786;DHT22;64402;44.708;37.644;2022-12-07T05:16:02;8.78;87.01
75786;DHT22;64402;44.708;37.644;2022-12-07T05:18:29;8.79;86.61
75786;DHT22;64402;44.708;37.644;2022-12-07T05:20:55;8.78;86.44
75786;DHT22;64402;44.708;37.644;2022-12-07T05:23:22;8.79;87.16
75786;DHT22;64402;44.708;37.644;2022-12-07T05:25:48;8.85;87.22
75786;DHT22;64402;44.708;37.644;2022-12-07T05:28:15;8.93;87.45
75786;DHT22;64402;44.708;37.644;2022-12-07T05:30:41;8.98;87.07
75786;DHT22;64402;44.708;37.644;2022-12-07T05:33:08;9.01;86.32
75786;DHT22;64402;44.708;37.644;2022-12-07T05:35:34;8.96;86.51
75786;DHT22;64402;44.708;37.644;2022-12-07T05:38:01;8.95;86.88
75786;DHT22;64402;44.708;37.644;2022-12-07T05:40:27;8.96;87.09
75786;DHT22;64402;44.708;37.644;2022-12-07T05:42:54;8.98;87.09
75786;DHT22;64402;44.708;37.644;2022-12-07T05:45:21;8.98;87.01
75786;DHT22;64402;44.708;37.644;2022-12-07T05:47:47;8.98;87.38
75786;DHT22;64402;44.708;37.644;2022-12-07T05:50:14;9.03;87.54
75786;DHT22;64402;44.708;37.644;2022-12-07T05:52:40;9.08;88.39
75786;DHT22;64402;44.708;37.644;2022-12-07T05:55:07;9.04;88.53
75786;DHT22;64402;44.708;37.644;2022-12-07T05:57:33;8.98;88.50
75786;DHT22;64402;44.708;37.644;2022-12-07T06:00:00;9.06;87.86
75786;DHT22;64402;44.708;37.644;2022-12-07T06:02:26;9.04;88.21
75786;DHT22;64402;44.708;37.644;2022-12-07T06:04:53;9.12;87.89
75786;DHT22;64402;44.708;37.644;2022-12-07T06:07:20;9.10;88.34
75786;DHT22;64402;44.708;37.644;2022-12-07T06:09:46;9.20;88.97
75786;DHT22;64402;44.708;37.644;2022-12-07T06:12:14;9.27;86.58
75786;DHT22;64402;44.708;37.644;2022-12-07T06:14:59;9.33;85.26
75786;DHT22;64402;44.708;37.644;2022-12-07T06:17:26;9.27;87.33
75786;DHT22;64402;44.708;37.644;2022-12-07T06:19:52;9.25;87.70
75786;DHT22;64402;44.708;37.644;2022-12-07T06:22:19;9.27;87.83
75786;DHT22;64402;44.708;37.644;2022-12-07T06:24:45;9.33;87.93
75786;DHT22;64402;44.708;37.644;2022-12-07T06:27:12;9.39;87.67
75786;DHT22;64402;44.708;37.644;2022-12-07T06:29:39;9.44;85.89
75786;DHT22;64402;44.708;37.644;2022-12-07T06:32:05;9.44;87.12
75786;DHT22;64402;44.708;37.644;2022-12-07T06:34:32;9.47;85.92
75786;DHT22;64402;44.708;37.644;2022-12-07T06:36:59;9.53;86.22
75786;DHT22;64402;44.708;37.644;2022-12-07T06:39:27;9.53;86.50
75786;DHT22;64402;44.708;37.644;2022-12-07T06:41:54;9.54;86.87
75786;DHT22;64402;44.708;37.644;2022-12-07T06:44:22;9.56;85.26
75786;DHT22;64402;44.708;37.644;2022-12-07T06:46:49;9.55;85.93
75786;DHT22;64402;44.708;37.644;2022-12-07T06:49:17;9.52;87.31
75786;DHT22;64402;44.708;37.644;2022-12-07T06:51:44;9.46;87.57
75786;DHT22;64402;44.708;37.644;2022-12-07T06:54:12;9.49;86.85
75786;DHT22;64402;44.708;37.644;2022-12-07T06:56:39;9.61;87.43
75786;DHT22;64402;44.708;37.644;2022-12-07T06:59:07;9.70;85.56
75786;DHT22;64402;44.708;37.644;2022-12-07T07:01:34;9.80;87.50
75786;DHT22;64402;44.708;37.644;2022-12-07T07:04:02;9.86;87.65
75786;DHT22;64402;44.708;37.644;2022-12-07T07:06:28;9.98;86.09
75786;DHT22;64402;44.708;37.644;2022-12-07T07:08:55;10.07;86.38
75786;DHT22;64402;44.708;37.644;2022-12-07T07:11:22;10.15;86.22
75786;DHT22;64402;44.708;37.644;2022-12-07T07:13:48;10.24;84.15
75786;DHT22;64402;44.708;37.644;2022-12-07T07:16:15;10.28;83.76
75786;DHT22;64402;44.708;37.644;2022-12-07T07:18:41;10.35;82.93
75786;DHT22;64402;44.708;37.644;2022-12-07T07:21:08;10.40;83.49
75786;DHT22;64402;44.708;37.644;2022-12-07T07:23:35;10.46;85.19
75786;DHT22;64402;44.708;37.644;2022-12-07T07:26:02;10.52;82.81
75786;DHT22;64402;44.708;37.644;2022-12-07T07:28:28;10.57;82.70
75786;DHT22;64402;44.708;37.644;2022-12-07T07:30:55;10.66;84.81
75786;DHT22;64402;44.708;37.644;2022-12-07T07:33:21;10.72;85.83
75786;DHT22;64402;44.708;37.644;2022-12-07T07:35:48;10.98;83.10
75786;DHT22;64402;44.708;37.644;2022-12-07T07:38:14;11.30;82.68
75786;DHT22;64402;44.708;37.644;2022-12-07T07:40:41;11.54;82.03
75786;DHT22;64402;44.708;37.644;2022-12-07T07:43:07;11.63;80.47
75786;DHT22;64402;44.708;37.644;2022-12-07T07:45:34;11.70;79.68
75786;DHT22;64402;44.708;37.644;2022-12-07T07:48:00;11.77;81.45
75786;DHT22;64402;44.708;37.644;2022-12-07T07:50:27;11.60;81.68
75786;DHT22;64402;44.708;37.644;2022-12-07T07:52:54;11.78;81.54
75786;DHT22;64402;44.708;37.644;2022-12-07T07:55:20;12.33;80.43
75786;DHT22;64402;44.708;37.644;2022-12-07T07:57:47;12.78;79.88
75786;DHT22;64402;44.708;37.644;2022-12-07T08:00:14;13.21;79.10
75786;DHT22;64402;44.708;37.644;2022-12-07T08:02:41;13.56;77.89
75786;DHT22;64402;44.708;37.644;2022-12-07T08:05:10;13.64;76.64
75786;DHT22;64402;44.708;37.644;2022-12-07T08:07:37;13.74;76.26
75786;DHT22;64402;44.708;37.644;2022-12-07T08:10:05;13.85;75.89
75786;DHT22;64402;44.708;37.644;2022-12-07T08:12:35;14.22;73.65
75786;DHT22;64402;44.708;37.644;2022-12-07T08:15:03;14.50;73.81
75786;DHT22;64402;44.708;37.644;2022-12-07T08:17:29;14.89;72.09
75786;DHT22;64402;44.708;37.644;2022-12-07T08:19:56;14.67;72.69
75786;DHT22;64402;44.708;37.644;2022-12-07T08:22:23;14.39;73.06
75786;DHT22;64402;44.708;37.644;2022-12-07T08:24:49;14.14;73.62
75786;DHT22;64402;44.708;37.644;2022-12-07T08:27:16;13.93;73.83
75786;DHT22;64402;44.708;37.644;2022-12-07T08:29:42;13.84;74.02
75786;DHT22;64402;44.708;37.644;2022-12-07T08:32:09;13.79;73.65
75786;DHT22;64402;44.708;37.644;2022-12-07T08:34:36;13.68;73.36
75786;DHT22;64402;44.708;37.644;2022-12-07T08:37:03;13.60;73.51
75786;DHT22;64402;44.708;37.644;2022-12-07T08:39:29;13.34;74.73
75786;DHT22;64402;44.708;37.644;2022-12-07T08:41:56;13.05;75.41
75786;DHT22;64402;44.708;37.644;2022-12-07T08:44:22;12.92;75.28
75786;DHT22;64402;44.708;37.644;2022-12-07T08:46:54;12.89;76.25
75786;DHT22;64402;44.708;37.644;2022-12-07T08:49:39;12.82;76.21
75786;DHT22;64402;44.708;37.644;2022-12-07T08:52:07;12.69;76.48
75786;DHT22;64402;44.708;37.644;2022-12-07T08:54:36;12.62;77.44
75786;DHT22;64402;44.708;37.644;2022-12-07T08:57:05;12.52;79.28
75786;DHT22;64402;44.708;37.644;2022-12-07T08:59:34;12.51;77.99
75786;DHT22;64402;44.708;37.644;2022-12-07T09:02:02;12.47;77.37
75786;DHT22;64402;44.708;37.644;2022-12-07T09:04:29;12.46;77.87
75786;DHT22;64402;44.708;37.644;2022-12-07T09:06:56;12.58;78.48
75786;DHT22;64402;44.708;37.644;2022-12-07T09:09:22;12.65;77.81
75786;DHT22;64402;44.708;37.644;2022-12-07T09:11:49;12.66;78.11
75786;DHT22;64402;44.708;37.644;2022-12-07T09:14:16;12.69;78.69
75786;DHT22;64402;44.708;37.644;2022-12-07T09:16:43;12.51;80.03
75786;DHT22;64402;44.708;37.644;2022-12-07T09:19:09;12.41;80.37
75786;DHT22;64402;44.708;37.644;2022-12-07T09:21:36;12.37;80.58
75786;DHT22;64402;44.708;37.644;2022-12-07T09:24:03;12.34;79.32
75786;DHT22;64402;44.708;37.644;2022-12-07T09:26:30;12.41;78.75
75786;DHT22;64402;44.708;37.644;2022-12-07T09:28:56;12.53;78.34
75786;DHT22;64402;44.708;37.644;2022-12-07T09:31:23;12.62;77.64
75786;DHT22;64402;44.708;37.644;2022-12-07T09:33:57;12.77;78.14
75786;DHT22;64402;44.708;37.644;2022-12-07T09:36:25;12.99;76.59
75786;DHT22;64402;44.708;37.644;2022-12-07T09:38:52;13.38;76.30
75786;DHT22;64402;44.708;37.644;2022-12-07T09:41:19;13.91;75.79
75786;DHT22;64402;44.708;37.644;2022-12-07T09:43:46;13.95;74.36
75786;DHT22;64402;44.708;37.644;2022-12-07T09:46:15;14.18;73.83
75786;DHT22;64402;44.708;37.644;2022-12-07T09:48:44;14.34;72.63
75786;DHT22;64402;44.708;37.644;2022-12-07T09:51:20;14.35;72.03
75786;DHT22;64402;44.708;37.644;2022-12-07T09:53:48;13.98;74.38
75786;DHT22;64402;44.708;37.644;2022-12-07T09:56:17;13.60;75.14
75786;DHT22;64402;44.708;37.644;2022-12-07T09:58:45;13.39;74.55
75786;DHT22;64402;44.708;37.644;2022-12-07T10:01:20;13.26;74.62
75786;DHT22;64402;44.708;37.644;2022-12-07T10:03:52;13.20;75.33
75786;DHT22;64402;44.708;37.644;2022-12-07T10:06:19;13.29;74.76
75786;DHT22;64402;44.708;37.644;2022-12-07T10:08:46;13.24;75.18
75786;DHT22;64402;44.708;37.644;2022-12-07T10:11:13;13.20;75.38
75786;DHT22;64402;44.708;37.644;2022-12-07T10:13:47;13.22;75.78
75786;DHT22;64402;44.708;37.644;2022-12-07T10:18:51;13.17;74.06
75786;DHT22;64402;44.708;37.644;2022-12-07T10:21:23;13.23;73.99
75786;DHT22;64402;44.708;37.644;2022-12-07T10:24:13;13.07;73.08
75786;DHT22;64402;44.708;37.644;2022-12-07T10:29:24;12.71;75.41
75786;DHT22;64402;44.708;37.644;2022-12-07T10:32:08;12.59;76.55
75786;DHT22;64402;44.708;37.644;2022-12-07T10:34:52;12.58;76.76
75786;DHT22;64402;44.708;37.644;2022-12-07T10:37:41;12.59;75.87
75786;DHT22;64402;44.708;37.644;2022-12-07T10:40:25;12.66;75.62
75786;DHT22;64402;44.708;37.644;2022-12-07T10:51:32;14.15;72.15
75786;DHT22;64402;44.708;37.644;2022-12-07T10:59:34;14.74;70.52
75786;DHT22;64402;44.708;37.644;2022-12-07T11:05:05;16.19;65.95
75786;DHT22;64402;44.708;37.644;2022-12-07T11:16:31;16.77;64.56
75786;DHT22;64402;44.708;37.644;2022-12-07T11:19:11;16.51;65.59
75786;DHT22;64402;44.708;37.644;2022-12-07T11:21:53;16.39;65.02
75786;DHT22;64402;44.708;37.644;2022-12-07T11:29:46;17.41;63.59
75786;DHT22;64402;44.708;37.644;2022-12-07T11:35:50;17.75;61.72
75786;DHT22;64402;44.708;37.644;2022-12-07T11:37:42;18.28;60.73
75786;DHT22;64402;44.708;37.644;2022-12-07T11:43:13;18.48;60.16
75786;DHT22;64402;44.708;37.644;2022-12-07T11:45:45;18.22;60.16
75786;DHT22;64402;44.708;37.644;2022-12-07T11:48:20;17.85;60.99
75786;DHT22;64402;44.708;37.644;2022-12-07T11:50:57;17.89;60.44
75786;DHT22;64402;44.708;37.644;2022-12-07T11:53:28;18.03;61.81
75786;DHT22;64402;44.708;37.644;2022-12-07T11:56:14;17.84;60.17
75786;DHT22;64402;44.708;37.644;2022-12-07T12:06:43;15.91;66.88
75786;DHT22;64402;44.708;37.644;2022-12-07T12:09:16;15.78;67.07
75786;DHT22;64402;44.708;37.644;2022-12-07T12:20:22;15.08;66.41
75786;DHT22;64402;44.708;37.644;2022-12-07T12:25:47;14.72;67.45
75786;DHT22;64402;44.708;37.644;2022-12-07T12:28:24;14.67;67.43
75786;DHT22;64402;44.708;37.644;2022-12-07T12:33:44;14.53;67.76
75786;DHT22;64402;44.708;37.644;2022-12-07T12:39:08;14.53;68.55
75786;DHT22;64402;44.708;37.644;2022-12-07T12:46:58;14.77;69.14
75786;DHT22;64402;44.708;37.644;2022-12-07T12:51:56;14.62;68.85
75786;DHT22;64402;44.708;37.644;2022-12-07T12:54:35;14.66;69.39
75786;DHT22;64402;44.708;37.644;2022-12-07T12:57:26;14.74;69.58
75786;DHT22;64402;44.708;37.644;2022-12-07T13:02:30;14.51;70.45
75786;DHT22;64402;44.708;37.644;2022-12-07T13:07:51;14.15;72.38
75786;DHT22;64402;44.708;37.644;2022-12-07T13:15:55;14.09;72.64
75786;DHT22;64402;44.708;37.644;2022-12-07T13:18:40;14.09;71.98
75786;DHT22;64402;44.708;37.644;2022-12-07T13:28:58;13.88;70.93
75786;DHT22;64402;44.708;37.644;2022-12-07T13:31:53;13.82;71.93
75786;DHT22;64402;44.708;37.644;2022-12-07T13:34:34;13.89;71.56
75786;DHT22;64402;44.708;37.644;2022-12-07T13:37:15;13.86;71.70
75786;DHT22;64402;44.708;37.644;2022-12-07T13:39:48;13.83;71.68
75786;DHT22;64402;44.708;37.644;2022-12-07T13:42:24;13.65;72.01
75786;DHT22;64402;44.708;37.644;2022-12-07T13:44:56;13.64;71.96
75786;DHT22;64402;44.708;37.644;2022-12-07T13:47:34;13.64;71.92
75786;DHT22;64402;44.708;37.644;2022-12-07T13:50:15;13.58;71.89
75786;DHT22;64402;44.708;37.644;2022-12-07T13:52:47;13.52;72.04
75786;DHT22;64402;44.708;37.644;2022-12-07T13:55:15;13.51;72.02
75786;DHT22;64402;44.708;37.644;2022-12-07T13:57:45;13.47;72.36
75786;DHT22;64402;44.708;37.644;2022-12-07T14:00:19;13.37;72.92
75786;DHT22;64402;44.708;37.644;2022-12-07T14:03:01;13.33;73.37
75786;DHT22;64402;44.708;37.644;2022-12-07T14:05:29;13.27;72.95
75786;DHT22;64402;44.708;37.644;2022-12-07T14:08:00;13.21;72.41
75786;DHT22;64402;44.708;37.644;2022-12-07T14:12:55;13.15;72.96
75786;DHT22;64402;44.708;37.644;2022-12-07T14:15:32;13.09;72.34
75786;DHT22;64402;44.708;37.644;2022-12-07T14:18:00;12.94;73.02
75786;DHT22;64402;44.708;37.644;2022-12-07T14:20:36;12.91;73.02
75786;DHT22;64402;44.708;37.644;2022-12-07T14:23:04;12.91;73.08
75786;DHT22;64402;44.708;37.644;2022-12-07T14:25:49;12.93;73.04
75786;DHT22;64402;44.708;37.644;2022-12-07T14:28:26;12.89;72.58
75786;DHT22;64402;44.708;37.644;2022-12-07T14:30:53;12.84;72.54
75786;DHT22;64402;44.708;37.644;2022-12-07T14:33:21;12.85;73.43
75786;DHT22;64402;44.708;37.644;2022-12-07T14:35:48;12.78;73.87
75786;DHT22;64402;44.708;37.644;2022-12-07T14:38:15;12.78;73.67
75786;DHT22;64402;44.708;37.644;2022-12-07T14:40:44;12.78;73.61
75786;DHT22;64402;44.708;37.644;2022-12-07T14:43:13;12.75;74.60
75786;DHT22;64402;44.708;37.644;2022-12-07T14:45:40;12.74;73.91
75786;DHT22;64402;44.708;37.644;2022-12-07T14:48:11;12.72;74.56
75786;DHT22;64402;44.708;37.644;2022-12-07T14:50:42;12.60;74.72
75786;DHT22;64402;44.708;37.644;2022-12-07T14:53:13;12.58;74.83
75786;DHT22;64402;44.708;37.644;2022-12-07T14:55:40;12.53;74.86
75786;DHT22;64402;44.708;37.644;2022-12-07T14:58:17;12.50;75.39
75786;DHT22;64402;44.708;37.644;2022-12-07T15:00:44;12.51;74.98
75786;DHT22;64402;44.708;37.644;2022-12-07T15:03:11;12.57;74.68
75786;DHT22;64402;44.708;37.644;2022-12-07T15:05:39;12.58;74.70
75786;DHT22;64402;44.708;37.644;2022-12-07T15:08:06;12.49;74.95
75786;DHT22;64402;44.708;37.644;2022-12-07T15:10:34;12.46;75.13
75786;DHT22;64402;44.708;37.644;2022-12-07T15:13:05;12.40;75.22
75786;DHT22;64402;44.708;37.644;2022-12-07T15:15:52;12.35;75.31
75786;DHT22;64402;44.708;37.644;2022-12-07T15:18:19;12.27;76.21
75786;DHT22;64402;44.708;37.644;2022-12-07T15:20:47;12.23;76.09
75786;DHT22;64402;44.708;37.644;2022-12-07T15:23:14;12.27;75.47
75786;DHT22;64402;44.708;37.644;2022-12-07T15:25:41;12.21;76.08
75786;DHT22;64402;44.708;37.644;2022-12-07T15:28:08;12.17;75.87
75786;DHT22;64402;44.708;37.644;2022-12-07T15:30:37;12.15;75.79
75786;DHT22;64402;44.708;37.644;2022-12-07T15:33:04;12.17;75.48
75786;DHT22;64402;44.708;37.644;2022-12-07T15:35:31;12.15;75.67
75786;DHT22;64402;44.708;37.644;2022-12-07T15:37:57;12.15;75.44
75786;DHT22;64402;44.708;37.644;2022-12-07T15:40:24;12.10;75.58
75786;DHT22;64402;44.708;37.644;2022-12-07T15:42:50;12.11;75.41
75786;DHT22;64402;44.708;37.644;2022-12-07T15:45:17;12.08;75.47
75786;DHT22;64402;44.708;37.644;2022-12-07T15:47:44;12.06;75.41
75786;DHT22;64402;44.708;37.644;2022-12-07T15:50:14;12.04;76.16
75786;DHT22;64402;44.708;37.644;2022-12-07T15:52:44;12.03;75.79
75786;DHT22;64402;44.708;37.644;2022-12-07T15:55:11;11.87;76.27
75786;DHT22;64402;44.708;37.644;2022-12-07T15:57:38;11.90;76.01
75786;DHT22;64402;44.708;37.644;2022-12-07T16:00:06;11.90;75.71
75786;DHT22;64402;44.708;37.644;2022-12-07T16:02:33;11.89;75.64
75786;DHT22;64402;44.708;37.644;2022-12-07T16:05:00;11.79;76.57
75786;DHT22;64402;44.708;37.644;2022-12-07T16:07:26;11.77;76.08
75786;DHT22;64402;44.708;37.644;2022-12-07T16:09:53;11.77;76.07
75786;DHT22;64402;44.708;37.644;2022-12-07T16:12:20;11.77;75.83
75786;DHT22;64402;44.708;37.644;2022-12-07T16:14:46;11.76;75.95
75786;DHT22;64402;44.708;37.644;2022-12-07T16:17:13;11.71;76.47
75786;DHT22;64402;44.708;37.644;2022-12-07T16:19:40;11.66;77.18
75786;DHT22;64402;44.708;37.644;2022-12-07T16:22:07;11.62;76.52
75786;DHT22;64402;44.708;37.644;2022-12-07T16:24:34;11.62;76.65
75786;DHT22;64402;44.708;37.644;2022-12-07T16:27:00;11.61;76.40
75786;DHT22;64402;44.708;37.644;2022-12-07T16:29:27;11.62;76.34
75786;DHT22;64402;44.708;37.644;2022-12-07T16:31:53;11.61;76.37
75786;DHT22;64402;44.708;37.644;2022-12-07T16:34:20;11.51;77.11
75786;DHT22;64402;44.708;37.644;2022-12-07T16:36:46;11.43;77.59
75786;DHT22;64402;44.708;37.644;2022-12-07T16:39:13;11.43;77.60
75786;DHT22;64402;44.708;37.644;2022-12-07T16:41:39;11.42;77.60
75786;DHT22;64402;44.708;37.644;2022-12-07T16:44:07;11.39;77.80
75786;DHT22;64402;44.708;37.644;2022-12-07T16:46:36;11.41;77.85
75786;DHT22;64402;44.708;37.644;2022-12-07T16:49:03;11.36;77.79
75786;DHT22;64402;44.708;37.644;2022-12-07T16:51:30;11.37;77.60
75786;DHT22;64402;44.708;37.644;2022-12-07T16:53:57;11.39;77.31
75786;DHT22;64402;44.708;37.644;2022-12-07T16:56:24;11.40;77.23
75786;DHT22;64402;44.708;37.644;2022-12-07T16:58:52;11.33;77.43
75786;DHT22;64402;44.708;37.644;2022-12-07T17:01:20;11.34;77.44
75786;DHT22;64402;44.708;37.644;2022-12-07T17:03:50;11.28;77.94
75786;DHT22;64402;44.708;37.644;2022-12-07T17:06:20;11.29;77.80
75786;DHT22;64402;44.708;37.644;2022-12-07T17:08:47;11.27;77.82
75786;DHT22;64402;44.708;37.644;2022-12-07T17:11:23;11.26;77.68
75786;DHT22;64402;44.708;37.644;2022-12-07T17:13:51;11.20;77.85
75786;DHT22;64402;44.708;37.644;2022-12-07T17:16:36;11.25;77.86
75786;DHT22;64402;44.708;37.644;2022-12-07T17:19:07;11.32;77.42
75786;DHT22;64402;44.708;37.644;2022-12-07T17:21:34;11.30;77.02
75786;DHT22;64402;44.708;37.644;2022-12-07T17:24:01;11.24;77.54
75786;DHT22;64402;44.708;37.644;2022-12-07T17:26:28;11.24;77.37
75786;DHT22;64402;44.708;37.644;2022-12-07T17:28:56;11.23;77.40
75786;DHT22;64402;44.708;37.644;2022-12-07T17:31:23;11.22;77.39
75786;DHT22;64402;44.708;37.644;2022-12-07T17:33:50;11.19;77.53
75786;DHT22;64402;44.708;37.644;2022-12-07T17:36:22;11.20;77.58
75786;DHT22;64402;44.708;37.644;2022-12-07T17:38:49;11.22;77.38
75786;DHT22;64402;44.708;37.644;2022-12-07T17:41:21;11.18;77.56
75786;DHT22;64402;44.708;37.644;2022-12-07T17:44:09;11.17;77.63
75786;DHT22;64402;44.708;37.644;2022-12-07T17:46:37;11.17;77.63
75786;DHT22;64402;44.708;37.644;2022-12-07T17:49:04;11.16;77.61